Atomic City, Idaho
Current Conditions -  °F | °C
As of 1:53 PM on Tuesday 21 Oct 2014 (Local Time) from KIDA Reporting Station
Broken Clouds Broken Clouds  
Wind Chill: 52°   Ceiling: 3300
Heat Index: 52°   Visibility: 10mi
Dew Point: 37°   Wind: 26mph
Humidity: 57%   Direction: 210°SSW
Pressure: 29.99"   Gusts: 38mph
Location:  43.44°N, 112.81°W
Report Text: KIDA 211953Z 21023G33KT 10SM BKN033 BKN100 11/03 A2999 RMK AO2 PK WND 21034/1926 SLP133 T01110028
Loading
Personal Weather Stations






























Interactive Weather Map
Tropical Storm Tracking
New forecast layout! Learn more

10-Day Weather Forecast

Advertisements
Track Severe Weather on mobile